createdAt,value
2022-11-14T00:01:11.005Z,99958.22
2022-11-14T00:03:38.266Z,99952.97
2022-11-14T00:06:07.234Z,99949.50
2022-11-14T00:08:34.373Z,99946.94
2022-11-14T00:11:01.473Z,99956.53
2022-11-14T00:13:28.219Z,99960.13
2022-11-14T00:15:55.352Z,99951.44
2022-11-14T00:18:22.403Z,99967.13
2022-11-14T00:20:50.670Z,99957.56
2022-11-14T00:23:18.023Z,99956.69
2022-11-14T00:25:45.602Z,99954.09
2022-11-14T00:28:12.858Z,99954.09
2022-11-14T00:30:39.545Z,99956.75
2022-11-14T00:33:06.790Z,99951.53
2022-11-14T00:35:33.576Z,99954.16
2022-11-14T00:38:00.983Z,99958.53
2022-11-14T00:40:27.739Z,99952.38
2022-11-14T00:42:54.513Z,99946.34
2022-11-14T00:45:21.562Z,99948.06
2022-11-14T00:47:48.340Z,99949.84
2022-11-14T00:50:16.611Z,99959.44
2022-11-14T00:52:43.817Z,99953.34
2022-11-14T00:55:10.662Z,99955.97
2022-11-14T00:57:37.678Z,99953.34
2022-11-14T01:00:05.761Z,99953.34
2022-11-14T01:02:32.825Z,99945.50
2022-11-14T01:05:00.249Z,99946.34
2022-11-14T01:07:27.241Z,99942.81
2022-11-14T01:09:54.275Z,99935.88
2022-11-14T01:12:21.086Z,99935.88
2022-11-14T01:14:48.333Z,99927.13
2022-11-14T01:17:15.167Z,99928.06
2022-11-14T01:19:42.265Z,99933.25
2022-11-14T01:22:09.070Z,99927.13
2022-11-14T01:24:36.132Z,99922.75
2022-11-14T01:27:03.235Z,99926.19
2022-11-14T01:29:30.565Z,99923.56
2022-11-14T01:31:57.539Z,99918.31
2022-11-14T01:34:24.349Z,99921.78
2022-11-14T01:36:51.431Z,99923.53
2022-11-14T01:39:18.199Z,99913.06
2022-11-14T01:41:45.321Z,99915.69
2022-11-14T01:44:48.987Z,99912.22
2022-11-14T01:47:26.235Z,99904.34
2022-11-14T01:49:57.605Z,99899.97
2022-11-14T01:52:36.378Z,99902.59
2022-11-14T01:55:08.096Z,99913.94
2022-11-14T01:57:44.205Z,99900.88
2022-11-14T02:00:12.453Z,99905.22
2022-11-14T02:02:39.489Z,99902.59
2022-11-14T02:05:10.541Z,99897.34
2022-11-14T02:07:40.411Z,99890.47
2022-11-14T02:10:11.238Z,99887.00
2022-11-14T02:12:38.507Z,99886.09
2022-11-14T02:15:05.777Z,99891.31
2022-11-14T02:17:32.843Z,99886.94
2022-11-14T02:20:12.061Z,99879.13
2022-11-14T02:22:40.720Z,99876.53
2022-11-14T02:25:09.590Z,99887.88
2022-11-14T02:27:39.333Z,99885.28
2022-11-14T02:30:11.344Z,99886.13
2022-11-14T02:33:09.478Z,99886.09
2022-11-14T02:35:25.759Z,99886.94
2022-11-14T02:37:52.533Z,99888.75
2022-11-14T02:40:19.415Z,99881.75
2022-11-14T02:42:46.415Z,99884.38
2022-11-14T02:45:13.624Z,99887.91
2022-11-14T02:47:40.628Z,99882.69
2022-11-14T02:50:07.683Z,99879.22
2022-11-14T02:52:34.778Z,99881.81
2022-11-14T02:55:01.563Z,99873.97
2022-11-14T02:57:28.640Z,99882.66
2022-11-14T02:59:55.451Z,99886.16
2022-11-14T03:02:22.209Z,99874.75
2022-11-14T03:04:49.187Z,99878.22
2022-11-14T03:07:16.052Z,99869.50
2022-11-14T03:09:42.878Z,99874.81
2022-11-14T03:12:10.282Z,99858.16
2022-11-14T03:14:37.003Z,99859.03
2022-11-14T03:17:03.809Z,99854.72
2022-11-14T03:19:30.825Z,99859.09
2022-11-14T03:21:57.531Z,99862.56
2022-11-14T03:24:24.269Z,99857.31
2022-11-14T03:26:51.598Z,99861.66
2022-11-14T03:29:18.350Z,99855.56
2022-11-14T03:31:45.450Z,99850.31
2022-11-14T03:34:12.315Z,99852.88
2022-11-14T03:36:39.248Z,99849.41
2022-11-14T03:39:06.771Z,99848.50
2022-11-14T03:41:33.531Z,99858.06
2022-11-14T03:44:00.283Z,99854.56
2022-11-14T03:46:27.325Z,99857.25
2022-11-14T03:48:54.084Z,99857.25
2022-11-14T03:51:21.429Z,99859.88
2022-11-14T03:53:48.155Z,99856.41
2022-11-14T03:56:15.150Z,99851.13
2022-11-14T03:58:41.849Z,99855.56
2022-11-14T04:01:08.993Z,99849.41
2022-11-14T04:03:35.747Z,99847.66
2022-11-14T04:06:03.246Z,99845.09
2022-11-14T04:08:30.859Z,99852.09
2022-11-14T04:10:57.736Z,99846.88
2022-11-14T04:13:24.836Z,99835.50
2022-11-14T04:15:56.320Z,99830.28
2022-11-14T04:18:24.211Z,99825.91
2022-11-14T04:20:51.374Z,99825.09
2022-11-14T04:23:19.037Z,99824.25
2022-11-14T04:25:46.582Z,99821.59
2022-11-14T04:28:14.140Z,99817.22
2022-11-14T04:30:40.979Z,99814.56
2022-11-14T04:33:08.123Z,99824.19
2022-11-14T04:35:34.979Z,99822.44
2022-11-14T04:38:02.082Z,99820.72
2022-11-14T04:40:28.964Z,99818.03
2022-11-14T04:42:55.994Z,99809.31
2022-11-14T04:45:22.781Z,99808.41
2022-11-14T04:47:49.906Z,99809.31
2022-11-14T04:50:16.674Z,99795.38
2022-11-14T04:52:43.697Z,99796.22
2022-11-14T04:55:10.633Z,99801.47
2022-11-14T04:57:37.411Z,99803.22
2022-11-14T05:00:05.509Z,99798.91
2022-11-14T05:02:33.015Z,99803.28
2022-11-14T05:05:00.110Z,99806.72
2022-11-14T05:07:26.961Z,99813.66
2022-11-14T05:09:54.138Z,99801.41
2022-11-14T05:12:21.095Z,99812.78
2022-11-14T05:14:48.844Z,99797.06
2022-11-14T05:17:15.658Z,99801.41
2022-11-14T05:19:42.648Z,99800.53
2022-11-14T05:22:09.393Z,99804.00
2022-11-14T05:24:36.445Z,99795.28
2022-11-14T05:27:03.325Z,99801.38
2022-11-14T05:29:30.119Z,99804.91
2022-11-14T05:31:58.139Z,99795.31
2022-11-14T05:34:25.137Z,99793.59
2022-11-14T05:36:52.206Z,99802.28
2022-11-14T05:39:18.963Z,99800.56
2022-11-14T05:41:46.030Z,99799.69
2022-11-14T05:44:12.836Z,99794.53
2022-11-14T05:46:39.620Z,99791.84
2022-11-14T05:49:06.678Z,99797.09
2022-11-14T05:51:33.420Z,99794.47
2022-11-14T05:54:00.506Z,99802.31
2022-11-14T05:56:27.282Z,99799.69
2022-11-14T05:58:54.333Z,99798.78
2022-11-14T06:01:21.408Z,99809.31
2022-11-14T06:03:49.003Z,99810.94
2022-11-14T06:06:19.331Z,99802.19
2022-11-14T06:08:46.987Z,99803.09
2022-11-14T06:11:16.939Z,99810.91
2022-11-14T06:13:44.551Z,99809.13
2022-11-14T06:16:16.750Z,99810.88
2022-11-14T06:18:44.633Z,99813.53
2022-11-14T06:21:12.684Z,99813.56
2022-11-14T06:23:40.024Z,99819.66
2022-11-14T06:26:14.954Z,99818.81
2022-11-14T06:28:42.035Z,99822.34
2022-11-14T06:31:08.783Z,99816.25
2022-11-14T06:33:37.296Z,99822.34
2022-11-14T06:36:06.615Z,99815.34
2022-11-14T06:38:34.332Z,99811.94
2022-11-14T06:41:18.705Z,99813.63
2022-11-14T06:43:48.196Z,99818.81
2022-11-14T06:46:18.886Z,99813.59
2022-11-14T06:48:46.741Z,99817.97
2022-11-14T06:51:15.596Z,99819.72
2022-11-14T06:53:43.401Z,99817.97
2022-11-14T06:56:13.649Z,99817.09
2022-11-14T06:58:43.655Z,99817.03
2022-11-14T07:01:18.622Z,99825.81
2022-11-14T07:03:46.254Z,99827.53
2022-11-14T07:06:17.036Z,99829.28
2022-11-14T07:08:43.925Z,99830.13
2022-11-14T07:11:26.714Z,99824.88
2022-11-14T07:13:58.292Z,99822.28
2022-11-14T07:16:30.840Z,99834.41
2022-11-14T07:18:58.694Z,99820.38
2022-11-14T07:21:27.376Z,99815.97
2022-11-14T07:23:54.371Z,99821.22
2022-11-14T07:26:21.777Z,99821.22
2022-11-14T07:28:52.431Z,99815.97
2022-11-14T07:31:21.931Z,99808.91
2022-11-14T07:33:48.768Z,99812.38
2022-11-14T07:36:16.863Z,99813.22
2022-11-14T07:38:43.678Z,99814.19
2022-11-14T07:41:12.472Z,99819.44
2022-11-14T07:43:39.516Z,99819.59
2022-11-14T07:46:12.540Z,99821.38
2022-11-14T07:48:39.577Z,99823.06
2022-11-14T07:51:09.960Z,99816.09
2022-11-14T07:53:36.771Z,99825.59
2022-11-14T07:56:06.409Z,99822.13
2022-11-14T07:58:35.361Z,99822.16
2022-11-14T08:01:02.880Z,99811.66
2022-11-14T08:03:29.983Z,99808.09
2022-11-14T08:06:04.446Z,99808.97
2022-11-14T08:08:31.632Z,99809.78
2022-11-14T08:10:59.965Z,99802.78
2022-11-14T08:13:33.222Z,99803.56
2022-11-14T08:16:10.793Z,99805.25
2022-11-14T08:18:39.502Z,99799.16
2022-11-14T08:21:06.904Z,99795.69
2022-11-14T08:23:33.923Z,99793.97
2022-11-14T08:26:00.963Z,99795.00
2022-11-14T08:28:28.225Z,99793.28
2022-11-14T08:31:03.443Z,99795.91
2022-11-14T08:33:31.169Z,99792.38
2022-11-14T08:36:06.386Z,99797.56
2022-11-14T08:38:34.619Z,99791.41
2022-11-14T08:41:03.152Z,99800.31
2022-11-14T08:43:33.378Z,99792.53
2022-11-14T08:46:02.401Z,99793.41
2022-11-14T08:48:30.367Z,99793.47
2022-11-14T08:50:58.261Z,99789.91
2022-11-14T08:53:25.114Z,99787.28
2022-11-14T08:55:52.105Z,99786.31
2022-11-14T08:58:18.859Z,99784.59
2022-11-14T09:00:45.967Z,99787.22
2022-11-14T09:03:16.313Z,99784.75
2022-11-14T09:05:43.620Z,99789.13
2022-11-14T09:08:10.346Z,99782.13
2022-11-14T09:10:37.545Z,99778.66
2022-11-14T09:13:04.341Z,99777.81
2022-11-14T09:15:31.424Z,99777.75
2022-11-14T09:17:58.744Z,99776.81
2022-11-14T09:20:31.682Z,99781.06
2022-11-14T09:23:02.484Z,99781.06
2022-11-14T09:25:30.293Z,99769.72
2022-11-14T09:27:58.861Z,99772.34
2022-11-14T09:30:25.703Z,99770.63
2022-11-14T09:32:52.883Z,99774.97
2022-11-14T09:35:19.638Z,99764.47
2022-11-14T09:37:46.688Z,99762.66
2022-11-14T09:40:14.537Z,99757.41
2022-11-14T09:43:13.425Z,99754.78
2022-11-14T09:45:48.085Z,99752.97
2022-11-14T09:48:19.968Z,99755.63
2022-11-14T09:51:00.598Z,99755.69
2022-11-14T09:53:37.183Z,99756.47
2022-11-14T09:56:03.960Z,99752.09
2022-11-14T09:58:31.277Z,99747.69
2022-11-14T10:01:28.573Z,99747.69
2022-11-14T10:04:22.177Z,99739.91
2022-11-14T10:07:05.618Z,99741.59
2022-11-14T10:10:00.575Z,99734.56
2022-11-14T10:12:37.849Z,99742.34
2022-11-14T10:15:14.376Z,99742.38
2022-11-14T10:18:05.704Z,99736.25
2022-11-14T10:20:35.265Z,99732.72
2022-11-14T10:23:17.181Z,99725.78
2022-11-14T10:26:01.131Z,99735.31
2022-11-14T10:28:48.845Z,99721.28
2022-11-14T10:31:40.328Z,99713.44
2022-11-14T10:34:16.219Z,99723.00
2022-11-14T10:36:55.840Z,99723.84
2022-11-14T10:39:43.669Z,99717.78
2022-11-14T10:42:25.840Z,99716.88
2022-11-14T10:45:04.505Z,99715.19
2022-11-14T10:47:44.869Z,99714.28
2022-11-14T10:50:28.512Z,99701.25
2022-11-14T10:53:01.088Z,99708.44
2022-11-14T10:55:50.040Z,99704.13
2022-11-14T10:58:15.050Z,99695.34
2022-11-14T11:00:41.883Z,99700.50
2022-11-14T11:03:09.015Z,99696.00
2022-11-14T11:05:50.065Z,99687.22
2022-11-14T11:08:44.148Z,99697.53
2022-11-14T11:11:31.721Z,99686.03
2022-11-14T11:14:01.398Z,99687.66
2022-11-14T11:16:28.995Z,99683.34
2022-11-14T11:19:15.573Z,99690.25
2022-11-14T11:21:51.171Z,99681.56
2022-11-14T11:24:31.959Z,99680.81
2022-11-14T11:27:23.329Z,99679.19
2022-11-14T11:30:09.277Z,99680.13
2022-11-14T11:32:36.113Z,99677.53
2022-11-14T11:35:12.026Z,99675.91
2022-11-14T11:37:49.660Z,99679.44
2022-11-14T11:40:28.627Z,99674.31
2022-11-14T11:43:37.324Z,99686.69
2022-11-14T11:45:55.758Z,99683.28
2022-11-14T11:48:24.037Z,99685.09
2022-11-14T11:50:51.096Z,99680.78
2022-11-14T11:53:20.838Z,99672.91
2022-11-14T11:55:52.446Z,99665.97
2022-11-14T11:58:50.120Z,99665.94
2022-11-14T12:01:17.999Z,99665.16
2022-11-14T12:03:50.219Z,99662.53
2022-11-14T12:06:25.393Z,99662.53
2022-11-14T12:09:14.733Z,99659.91
2022-11-14T12:11:48.857Z,99646.72
2022-11-14T12:14:43.670Z,99645.88
2022-11-14T12:17:49.072Z,99641.56
2022-11-14T12:20:50.129Z,99647.63
2022-11-14T12:23:44.363Z,99643.25
2022-11-14T12:26:55.139Z,99638.03
2022-11-14T12:29:25.494Z,99629.31
2022-11-14T12:31:59.195Z,99638.88
2022-11-14T12:34:37.052Z,99628.47
2022-11-14T12:37:16.782Z,99623.22
2022-11-14T12:39:59.144Z,99628.41
2022-11-14T12:42:26.418Z,99631.91
2022-11-14T12:44:53.374Z,99626.69
2022-11-14T12:47:22.799Z,99629.31
2022-11-14T12:49:52.810Z,99626.69
2022-11-14T12:52:42.447Z,99624.91
2022-11-14T12:55:27.061Z,99625.84
2022-11-14T12:58:10.828Z,99617.06
2022-11-14T13:00:46.451Z,99613.59
2022-11-14T13:03:30.157Z,99625.78
2022-11-14T13:06:07.641Z,99621.47
2022-11-14T13:08:52.230Z,99620.59
2022-11-14T13:11:56.808Z,99613.66
2022-11-14T13:14:42.767Z,99611.97
2022-11-14T13:17:34.280Z,99608.59
2022-11-14T13:20:41.577Z,99611.25
2022-11-14T13:23:40.679Z,99606.94
2022-11-14T13:26:10.561Z,99599.13
2022-11-14T13:28:37.321Z,99607.00
2022-11-14T13:31:15.949Z,99605.25
2022-11-14T13:33:43.972Z,99604.41
2022-11-14T13:36:41.815Z,99593.94
2022-11-14T13:39:17.962Z,99592.22
2022-11-14T13:42:16.082Z,99589.53
2022-11-14T13:45:09.383Z,99584.44
2022-11-14T13:48:03.672Z,99594.94
2022-11-14T13:50:37.479Z,99591.47
2022-11-14T13:53:17.460Z,99591.63
2022-11-14T13:55:50.362Z,99600.34
2022-11-14T13:58:35.283Z,99591.66
2022-11-14T14:01:30.362Z,99594.31
2022-11-14T14:04:40.784Z,99583.84
2022-11-14T14:07:26.870Z,99588.25
2022-11-14T14:10:17.669Z,99579.63
2022-11-14T14:13:22.681Z,99579.63
2022-11-14T14:15:59.869Z,99578.78
2022-11-14T14:18:50.273Z,99580.56
2022-11-14T14:21:40.357Z,99575.38
2022-11-14T14:24:34.995Z,99569.28
2022-11-14T14:27:16.631Z,99558.75
2022-11-14T14:29:54.546Z,99561.38
2022-11-14T14:32:21.536Z,99563.16
2022-11-14T14:34:48.640Z,99551.75
2022-11-14T14:37:26.862Z,99549.16
2022-11-14T14:39:56.887Z,99548.31
2022-11-14T14:42:24.494Z,99545.69
2022-11-14T14:44:51.851Z,99541.31
2022-11-14T14:47:33.452Z,99545.69
2022-11-14T14:50:15.586Z,99543.94
2022-11-14T14:52:42.562Z,99549.31
2022-11-14T14:55:20.483Z,99543.25
2022-11-14T14:57:47.345Z,99540.63
2022-11-14T15:00:17.965Z,99538.91
2022-11-14T15:02:45.574Z,99541.44
2022-11-14T15:05:25.313Z,99531.84
2022-11-14T15:07:56.287Z,99537.91
2022-11-14T15:10:26.412Z,99535.28
2022-11-14T15:12:53.957Z,99543.06
2022-11-14T15:15:22.346Z,99535.31
2022-11-14T15:17:50.229Z,99527.53
2022-11-14T15:20:26.742Z,99535.38
2022-11-14T15:23:10.235Z,99530.13
2022-11-14T15:25:37.886Z,99524.91
2022-11-14T15:28:13.690Z,99519.59
2022-11-14T15:30:40.825Z,99524.81
2022-11-14T15:33:27.580Z,99535.31
2022-11-14T15:36:12.168Z,99528.44
2022-11-14T15:38:46.142Z,99517.13
2022-11-14T15:41:28.150Z,99504.97
2022-11-14T15:44:01.796Z,99503.19
2022-11-14T15:46:40.745Z,99503.19
2022-11-14T15:49:19.605Z,99507.53
2022-11-14T15:51:55.068Z,99505.84
2022-11-14T15:54:22.903Z,99506.69
2022-11-14T15:56:50.261Z,99514.59
2022-11-14T15:59:17.352Z,99506.69
2022-11-14T16:01:47.352Z,99511.03
2022-11-14T16:04:32.585Z,99504.03
2022-11-14T16:07:00.351Z,99511.78
2022-11-14T16:09:27.189Z,99513.50
2022-11-14T16:11:54.269Z,99508.28
2022-11-14T16:14:21.020Z,99507.41
2022-11-14T16:16:48.172Z,99507.50
2022-11-14T16:19:16.627Z,99502.25
2022-11-14T16:21:44.657Z,99507.50
2022-11-14T16:24:18.820Z,99503.19
2022-11-14T16:26:46.608Z,99500.56
2022-11-14T16:29:13.714Z,99499.72
2022-11-14T16:31:41.335Z,99502.34
2022-11-14T16:34:15.569Z,99494.53
2022-11-14T16:36:45.320Z,99499.81
2022-11-14T16:39:13.610Z,99506.75
2022-11-14T16:41:41.381Z,99502.44
2022-11-14T16:44:13.835Z,99498.06
2022-11-14T16:46:40.921Z,99497.19
2022-11-14T16:49:07.644Z,99492.81
2022-11-14T16:51:51.117Z,99491.19
2022-11-14T16:54:19.624Z,99487.72
2022-11-14T16:56:47.726Z,99471.97
2022-11-14T16:59:14.631Z,99469.34
2022-11-14T17:01:42.438Z,99471.97
2022-11-14T17:04:09.325Z,99479.81
2022-11-14T17:06:36.450Z,99471.13
2022-11-14T17:09:03.572Z,99471.97
2022-11-14T17:11:30.725Z,99470.25
2022-11-14T17:13:57.522Z,99470.25
2022-11-14T17:16:24.818Z,99465.09
2022-11-14T17:18:53.921Z,99470.38
2022-11-14T17:21:21.891Z,99459.81
2022-11-14T17:24:01.523Z,99465.03
2022-11-14T17:26:29.213Z,99465.88
2022-11-14T17:28:56.553Z,99462.38
2022-11-14T17:31:23.642Z,99463.25
2022-11-14T17:33:53.977Z,99458.81
2022-11-14T17:36:22.482Z,99461.41
2022-11-14T17:38:49.277Z,99458.75
2022-11-14T17:41:16.371Z,99457.09
2022-11-14T17:43:43.679Z,99457.13
2022-11-14T17:46:16.107Z,99460.66
2022-11-14T17:48:46.544Z,99454.50
2022-11-14T17:51:15.789Z,99459.78
2022-11-14T17:53:43.518Z,99454.59
2022-11-14T17:56:19.343Z,99441.50
2022-11-14T17:58:47.030Z,99447.59
2022-11-14T18:01:16.665Z,99446.72
2022-11-14T18:03:43.862Z,99436.19
2022-11-14T18:06:13.206Z,99438.72
2022-11-14T18:08:40.080Z,99425.72
2022-11-14T18:11:10.107Z,99431.81
2022-11-14T18:13:37.572Z,99428.31
2022-11-14T18:16:07.550Z,99428.34
2022-11-14T18:18:36.184Z,99428.41
2022-11-14T18:21:18.776Z,99427.50
2022-11-14T18:23:51.298Z,99435.34
2022-11-14T18:26:21.628Z,99421.41
2022-11-14T18:28:48.560Z,99435.34
2022-11-14T18:31:15.765Z,99430.13
2022-11-14T18:33:43.223Z,99426.69
2022-11-14T18:36:14.006Z,99424.09
2022-11-14T18:38:41.632Z,99423.19
2022-11-14T18:41:12.707Z,99414.47
2022-11-14T18:43:39.911Z,99416.22
2022-11-14T18:46:15.360Z,99413.59
2022-11-14T18:48:46.125Z,99413.66
2022-11-14T18:51:19.093Z,99413.66
2022-11-14T18:53:45.920Z,99413.66
2022-11-14T18:56:15.951Z,99413.66
2022-11-14T18:58:43.651Z,99416.28
2022-11-14T19:01:13.459Z,99413.72
2022-11-14T19:03:40.882Z,99419.88
2022-11-14T19:06:10.629Z,99415.53
2022-11-14T19:08:37.443Z,99417.34
2022-11-14T19:11:06.556Z,99408.66
2022-11-14T19:13:33.715Z,99405.13
2022-11-14T19:16:05.432Z,99411.28
2022-11-14T19:18:32.843Z,99402.53
2022-11-14T19:21:02.543Z,99398.16
2022-11-14T19:23:30.115Z,99406.88
2022-11-14T19:26:10.305Z,99410.38
2022-11-14T19:28:37.832Z,99404.31
2022-11-14T19:31:06.019Z,99406.16
2022-11-14T19:33:33.337Z,99407.00
2022-11-14T19:36:08.770Z,99405.28
2022-11-14T19:38:35.525Z,99402.75
2022-11-14T19:41:12.600Z,99385.31
2022-11-14T19:43:40.224Z,99391.53
2022-11-14T19:46:07.632Z,99388.06
2022-11-14T19:48:35.002Z,99388.91
2022-11-14T19:51:07.253Z,99384.50
2022-11-14T19:53:36.131Z,99382.72
2022-11-14T19:56:04.281Z,99388.91
2022-11-14T19:58:31.235Z,99378.44
2022-11-14T20:01:06.618Z,99388.00
2022-11-14T20:03:33.895Z,99377.53
2022-11-14T20:06:01.263Z,99376.66
2022-11-14T20:08:28.187Z,99375.78
2022-11-14T20:11:01.356Z,99371.47
2022-11-14T20:13:35.939Z,99365.38
2022-11-14T20:16:14.104Z,99360.16
2022-11-14T20:18:42.580Z,99358.41
2022-11-14T20:21:13.234Z,99353.25
2022-11-14T20:23:40.161Z,99352.34
2022-11-14T20:26:11.231Z,99352.34
2022-11-14T20:28:39.509Z,99348.88
2022-11-14T20:31:09.891Z,99352.41
2022-11-14T20:33:38.578Z,99350.63
2022-11-14T20:36:08.904Z,99353.22
2022-11-14T20:38:35.705Z,99348.88
2022-11-14T20:41:02.905Z,99348.00
2022-11-14T20:43:30.601Z,99354.03
2022-11-14T20:46:03.809Z,99347.09
2022-11-14T20:48:33.734Z,99349.69
2022-11-14T20:51:16.598Z,99345.31
2022-11-14T20:53:44.155Z,99347.06
2022-11-14T20:56:13.167Z,99340.97
2022-11-14T20:58:41.272Z,99328.81
2022-11-14T21:01:08.995Z,99332.34
2022-11-14T21:03:36.169Z,99335.03
2022-11-14T21:06:04.235Z,99326.34
2022-11-14T21:08:34.494Z,99325.50
2022-11-14T21:11:07.141Z,99322.97
2022-11-14T21:13:54.271Z,99323.81
2022-11-14T21:16:23.067Z,99325.56
2022-11-14T21:18:53.749Z,99318.59
2022-11-14T21:21:23.723Z,99309.03
2022-11-14T21:23:51.243Z,99304.66
2022-11-14T21:26:22.042Z,99303.75
2022-11-14T21:28:51.702Z,99297.69
2022-11-14T21:31:43.049Z,99289.84
2022-11-14T21:34:13.657Z,99291.69
2022-11-14T21:36:46.087Z,99280.31
2022-11-14T21:39:15.817Z,99289.09
2022-11-14T21:41:44.635Z,99284.75
2022-11-14T21:44:16.630Z,99282.97
2022-11-14T21:46:47.132Z,99282.91
2022-11-14T21:49:14.156Z,99282.91
2022-11-14T21:51:41.453Z,99276.88
2022-11-14T21:54:09.362Z,99271.72
2022-11-14T21:56:37.323Z,99272.56
2022-11-14T21:59:15.549Z,99279.47
2022-11-14T22:02:04.177Z,99270.78
2022-11-14T22:04:31.693Z,99267.34
2022-11-14T22:07:03.396Z,99268.19
2022-11-14T22:09:30.826Z,99262.97
2022-11-14T22:11:58.657Z,99265.56
2022-11-14T22:14:25.613Z,99267.31
2022-11-14T22:16:52.791Z,99269.91
2022-11-14T22:19:19.551Z,99255.94
2022-11-14T22:21:46.654Z,99255.09
2022-11-14T22:24:13.421Z,99256.78
2022-11-14T22:26:41.435Z,99254.19
2022-11-14T22:29:09.014Z,99259.41
2022-11-14T22:31:37.698Z,99257.66
2022-11-14T22:34:04.974Z,99246.31
2022-11-14T22:36:33.391Z,99243.69
2022-11-14T22:39:00.399Z,99243.72
2022-11-14T22:41:33.635Z,99244.53
2022-11-14T22:44:01.640Z,99244.56
2022-11-14T22:46:29.146Z,99235.00
2022-11-14T22:48:56.475Z,99241.97
2022-11-14T22:51:27.385Z,99246.31
2022-11-14T22:53:56.282Z,99239.44
2022-11-14T22:56:25.994Z,99232.50
2022-11-14T22:58:52.767Z,99235.13
2022-11-14T23:01:23.988Z,99228.13
2022-11-14T23:03:59.368Z,99235.13
2022-11-14T23:06:27.920Z,99227.22
2022-11-14T23:08:55.132Z,99226.34
2022-11-14T23:11:25.111Z,99221.13
2022-11-14T23:13:54.290Z,99215.06
2022-11-14T23:16:25.318Z,99212.53
2022-11-14T23:18:54.884Z,99212.47
2022-11-14T23:21:25.060Z,99203.88
2022-11-14T23:24:00.137Z,99206.53
2022-11-14T23:26:29.029Z,99199.56
2022-11-14T23:28:56.570Z,99196.94
2022-11-14T23:31:24.918Z,99201.25
2022-11-14T23:33:54.728Z,99198.63
2022-11-14T23:36:21.972Z,99200.31
2022-11-14T23:38:48.775Z,99200.28
2022-11-14T23:41:18.857Z,99190.75
2022-11-14T23:43:46.608Z,99190.78
2022-11-14T23:46:14.719Z,99190.78
2022-11-14T23:48:41.688Z,99189.09
2022-11-14T23:51:10.053Z,99181.28
2022-11-14T23:53:36.831Z,99183.91
2022-11-14T23:56:04.109Z,99175.22
2022-11-14T23:58:31.123Z,99183.13
